createdAt,value
2018-10-06T00:00:09.044Z,56.10
2018-10-06T00:02:38.170Z,56.67
2018-10-06T00:05:06.946Z,53.53
2018-10-06T00:07:35.836Z,54.73
2018-10-06T00:10:04.804Z,51.90
2018-10-06T00:12:33.411Z,55.03
2018-10-06T00:15:02.162Z,53.47
2018-10-06T00:17:30.887Z,49.60
2018-10-06T00:19:59.759Z,56.20
2018-10-06T00:22:30.137Z,57.90
2018-10-06T00:24:59.075Z,64.53
2018-10-06T00:27:28.411Z,62.10
2018-10-06T00:29:57.705Z,59.63
2018-10-06T00:32:27.154Z,59.77
2018-10-06T00:34:56.310Z,57.83
2018-10-06T00:37:25.446Z,63.83
2018-10-06T00:39:54.222Z,63.27
2018-10-06T00:42:23.048Z,62.90
2018-10-06T00:44:51.864Z,65.37
2018-10-06T00:47:20.673Z,65.10
2018-10-06T00:49:49.441Z,63.17
2018-10-06T00:52:18.203Z,66.43
2018-10-06T00:54:47.025Z,68.20
2018-10-06T00:57:15.867Z,71.50
2018-10-06T00:59:47.537Z,69.77
2018-10-06T01:02:16.354Z,71.30
2018-10-06T01:04:45.071Z,66.70
2018-10-06T01:07:13.875Z,69.67
2018-10-06T01:09:42.666Z,65.40
2018-10-06T01:12:11.530Z,67.70
2018-10-06T01:14:40.295Z,65.67
2018-10-06T01:17:09.435Z,61.43
2018-10-06T01:19:38.336Z,56.90
2018-10-06T01:22:07.325Z,55.30
2018-10-06T01:24:36.087Z,55.10
2018-10-06T01:27:04.907Z,65.23
2018-10-06T01:29:34.304Z,65.90
2018-10-06T01:32:04.650Z,66.70
2018-10-06T01:34:33.950Z,61.13
2018-10-06T01:37:02.790Z,66.97
2018-10-06T01:39:32.207Z,60.53
2018-10-06T01:42:01.333Z,64.20
2018-10-06T01:44:30.213Z,61.80
2018-10-06T01:46:59.037Z,57.20
2018-10-06T01:49:27.736Z,56.37
2018-10-06T01:51:56.515Z,55.90
2018-10-06T01:54:25.386Z,51.70
2018-10-06T01:56:56.400Z,55.03
2018-10-06T01:59:25.294Z,53.00
2018-10-06T02:01:54.152Z,54.00
2018-10-06T02:04:25.860Z,52.60
2018-10-06T02:06:56.239Z,51.57
2018-10-06T02:09:25.097Z,52.70
2018-10-06T02:11:53.890Z,53.73
2018-10-06T02:14:22.715Z,55.57
2018-10-06T02:16:51.545Z,56.97
2018-10-06T02:19:20.425Z,55.43
2018-10-06T02:21:49.323Z,56.80
2018-10-06T02:24:18.158Z,57.60
2018-10-06T02:26:47.019Z,58.57
2018-10-06T02:29:15.877Z,54.63
2018-10-06T02:31:44.667Z,53.20
2018-10-06T02:34:13.476Z,56.47
2018-10-06T02:36:42.556Z,52.23
2018-10-06T02:39:11.584Z,52.93
2018-10-06T02:41:40.445Z,56.30
2018-10-06T02:44:09.306Z,57.47
2018-10-06T02:46:39.039Z,56.00
2018-10-06T02:49:07.857Z,54.57
2018-10-06T02:51:36.639Z,63.10
2018-10-06T02:54:06.125Z,56.23
2018-10-06T02:56:34.983Z,61.10
2018-10-06T02:59:03.748Z,58.33
2018-10-06T03:01:32.577Z,59.13
2018-10-06T03:04:01.378Z,60.77
2018-10-06T03:06:34.538Z,62.97
2018-10-06T03:09:03.459Z,62.60
2018-10-06T03:11:32.277Z,61.63
2018-10-06T03:14:01.094Z,63.13
2018-10-06T03:16:29.831Z,62.33
2018-10-06T03:18:58.607Z,61.43
2018-10-06T03:21:27.443Z,61.37
2018-10-06T03:23:56.251Z,67.13
2018-10-06T03:26:25.133Z,61.70
2018-10-06T03:28:53.800Z,64.77
2018-10-06T03:31:22.617Z,65.67
2018-10-06T03:33:51.490Z,60.17
2018-10-06T03:36:20.252Z,60.63
2018-10-06T03:38:49.035Z,66.67
2018-10-06T03:41:17.866Z,61.40
2018-10-06T03:43:46.683Z,59.77
2018-10-06T03:46:15.628Z,63.73
2018-10-06T03:48:44.384Z,64.07
2018-10-06T03:51:15.041Z,61.10
2018-10-06T03:53:43.847Z,62.17
2018-10-06T03:56:12.580Z,64.20
2018-10-06T03:58:41.398Z,61.40
2018-10-06T04:01:10.126Z,58.50
2018-10-06T04:03:39.881Z,64.70
2018-10-06T04:06:08.640Z,66.27
2018-10-06T04:08:37.684Z,64.60
2018-10-06T04:11:10.774Z,65.50
2018-10-06T04:13:40.875Z,66.17
2018-10-06T04:16:10.246Z,65.80
2018-10-06T04:18:39.120Z,65.17
2018-10-06T04:21:07.889Z,62.90
2018-10-06T04:23:36.590Z,64.07
2018-10-06T04:26:05.293Z,63.47
2018-10-06T04:28:34.222Z,65.70
2018-10-06T04:31:02.912Z,62.73
2018-10-06T04:33:31.626Z,63.00
2018-10-06T04:36:00.428Z,61.77
2018-10-06T04:38:29.220Z,61.60
2018-10-06T04:40:57.976Z,61.40
2018-10-06T04:43:26.772Z,62.43
2018-10-06T04:45:55.740Z,63.07
2018-10-06T04:48:24.757Z,60.70
2018-10-06T04:50:53.653Z,61.53
2018-10-06T04:53:22.533Z,61.13
2018-10-06T04:55:51.293Z,61.87
2018-10-06T04:58:20.375Z,60.97
2018-10-06T05:00:49.188Z,60.07
2018-10-06T05:03:18.180Z,60.73
2018-10-06T05:05:47.128Z,59.17
2018-10-06T05:08:15.890Z,58.57
2018-10-06T05:10:45.013Z,58.77
2018-10-06T05:13:14.182Z,55.00
2018-10-06T05:15:43.134Z,55.17
2018-10-06T05:18:12.131Z,52.93
2018-10-06T05:20:43.952Z,53.63
2018-10-06T05:23:13.493Z,50.30
2018-10-06T05:25:44.104Z,48.27
2018-10-06T05:28:13.088Z,48.27
2018-10-06T05:30:44.301Z,46.47
2018-10-06T05:33:13.106Z,44.63
2018-10-06T05:35:42.018Z,44.03
2018-10-06T05:38:10.789Z,44.27
2018-10-06T05:40:40.769Z,43.17
2018-10-06T05:43:09.703Z,45.10
2018-10-06T05:45:39.477Z,43.90
2018-10-06T05:48:08.441Z,42.37
2018-10-06T05:50:37.759Z,39.93
2018-10-06T05:53:07.016Z,40.13
2018-10-06T05:55:36.522Z,39.40
2018-10-06T05:58:05.506Z,38.83
2018-10-06T06:00:34.656Z,37.63
2018-10-06T06:03:03.528Z,39.10
2018-10-06T06:05:32.449Z,39.93
2018-10-06T06:08:01.335Z,40.93
2018-10-06T06:10:30.319Z,39.80
2018-10-06T06:12:59.353Z,39.37
2018-10-06T06:15:28.223Z,40.13
2018-10-06T06:17:57.076Z,39.33
2018-10-06T06:20:26.620Z,38.17
2018-10-06T06:22:55.609Z,39.83
2018-10-06T06:25:24.553Z,39.20
2018-10-06T06:27:53.497Z,40.23
2018-10-06T06:30:22.386Z,39.13
2018-10-06T06:32:51.271Z,37.23
2018-10-06T06:35:20.073Z,37.90
2018-10-06T06:37:48.888Z,39.07
2018-10-06T06:40:17.777Z,38.83
2018-10-06T06:42:46.718Z,38.67
2018-10-06T06:45:15.534Z,37.17
2018-10-06T06:47:47.110Z,37.13
2018-10-06T06:50:16.348Z,36.57
2018-10-06T06:52:45.086Z,35.73
2018-10-06T06:55:13.955Z,36.30
2018-10-06T06:57:44.438Z,34.57
2018-10-06T07:00:13.247Z,35.93
2018-10-06T07:02:42.010Z,34.50
2018-10-06T07:05:10.899Z,32.43
2018-10-06T07:07:39.925Z,33.27
2018-10-06T07:10:08.827Z,35.23
2018-10-06T07:12:37.625Z,33.83
2018-10-06T07:15:06.253Z,32.20
2018-10-06T07:17:35.004Z,33.33
2018-10-06T07:20:03.727Z,30.80
2018-10-06T07:22:32.589Z,32.87
2018-10-06T07:25:01.498Z,33.00
2018-10-06T07:27:30.178Z,31.23
2018-10-06T07:29:58.897Z,32.23
2018-10-06T07:32:27.657Z,31.20
2018-10-06T07:34:56.479Z,31.03
2018-10-06T07:37:25.267Z,31.43
2018-10-06T07:39:54.061Z,32.20
2018-10-06T07:42:22.950Z,31.17
2018-10-06T07:44:51.709Z,31.30
2018-10-06T07:47:20.521Z,30.03
2018-10-06T07:49:49.290Z,29.73
2018-10-06T07:52:18.351Z,30.03
2018-10-06T07:54:47.032Z,29.20
2018-10-06T07:57:15.747Z,28.83
2018-10-06T07:59:45.453Z,29.53
2018-10-06T08:02:14.267Z,28.70
2018-10-06T08:04:43.018Z,28.87
2018-10-06T08:07:11.759Z,27.60
2018-10-06T08:09:40.852Z,28.53
2018-10-06T08:12:09.706Z,28.33
2018-10-06T08:14:38.386Z,26.73
2018-10-06T08:17:07.178Z,28.97
2018-10-06T08:19:35.881Z,26.00
2018-10-06T08:22:04.745Z,26.27
2018-10-06T08:24:33.551Z,25.63
2018-10-06T08:27:02.314Z,26.87
2018-10-06T08:29:31.569Z,26.10
2018-10-06T08:32:00.228Z,27.03
2018-10-06T08:34:29.041Z,26.20
2018-10-06T08:36:57.737Z,26.20
2018-10-06T08:39:26.616Z,25.40
2018-10-06T08:41:55.251Z,24.03
2018-10-06T08:44:23.935Z,26.47
2018-10-06T08:46:52.705Z,24.43
2018-10-06T08:49:21.571Z,26.30
2018-10-06T08:51:50.281Z,25.93
2018-10-06T08:54:19.110Z,25.40
2018-10-06T08:56:47.860Z,25.37
2018-10-06T08:59:16.507Z,25.80
2018-10-06T09:01:45.294Z,25.57
2018-10-06T09:04:14.060Z,25.13
2018-10-06T09:06:42.817Z,25.10
2018-10-06T09:09:11.511Z,25.67
2018-10-06T09:11:40.195Z,26.17
2018-10-06T09:14:08.933Z,24.57
2018-10-06T09:16:37.797Z,26.30
2018-10-06T09:19:06.593Z,25.43
2018-10-06T09:21:35.321Z,26.97
2018-10-06T09:24:04.034Z,26.13
2018-10-06T09:26:33.830Z,26.77
2018-10-06T09:29:02.639Z,25.47
2018-10-06T09:31:31.797Z,25.23
2018-10-06T09:34:00.713Z,25.00
2018-10-06T09:36:29.529Z,24.97
2018-10-06T09:38:58.304Z,24.57
2018-10-06T09:41:27.272Z,25.93
2018-10-06T09:44:18.978Z,25.87
2018-10-06T09:46:54.703Z,24.73
2018-10-06T09:49:38.282Z,25.30
2018-10-06T09:52:16.653Z,23.53
2018-10-06T09:54:46.791Z,24.70
2018-10-06T09:57:16.258Z,24.30
2018-10-06T09:59:46.211Z,24.63
2018-10-06T10:02:20.140Z,24.60
2018-10-06T10:04:51.191Z,25.10
2018-10-06T10:07:20.692Z,25.50
2018-10-06T10:09:49.650Z,24.27
2018-10-06T10:12:18.735Z,23.83
2018-10-06T10:14:47.477Z,23.97
2018-10-06T10:17:18.065Z,24.77
2018-10-06T10:19:46.782Z,24.17
2018-10-06T10:22:17.242Z,23.73
2018-10-06T10:24:47.170Z,23.20
2018-10-06T10:27:17.125Z,24.67
2018-10-06T10:29:47.922Z,23.83
2018-10-06T10:32:17.123Z,22.93
2018-10-06T10:34:46.072Z,22.27
2018-10-06T10:37:48.849Z,22.40
2018-10-06T10:40:24.867Z,23.37
2018-10-06T10:42:55.189Z,21.73
2018-10-06T10:45:29.908Z,22.33
2018-10-06T10:48:04.943Z,22.00
2018-10-06T10:54:42.015Z,20.57
2018-10-06T10:57:10.838Z,21.47
2018-10-06T10:59:39.795Z,20.03
2018-10-06T11:02:09.824Z,19.50
2018-10-06T11:04:42.783Z,18.37
2018-10-06T11:07:14.506Z,21.03
2018-10-06T11:09:44.581Z,20.00
2018-10-06T11:12:19.604Z,20.60
2018-10-06T11:14:49.686Z,20.90
2018-10-06T11:17:19.353Z,20.23
2018-10-06T11:19:52.046Z,20.33
2018-10-06T11:22:24.670Z,19.23
2018-10-06T11:24:54.236Z,21.63
2018-10-06T11:27:27.760Z,22.57
2018-10-06T11:29:57.527Z,20.70
2018-10-06T11:32:28.392Z,21.90
2018-10-06T11:34:59.425Z,23.07
2018-10-06T11:37:29.375Z,23.50
2018-10-06T11:40:18.737Z,25.53
2018-10-06T11:43:03.654Z,23.60
2018-10-06T11:45:34.683Z,24.60
2018-10-06T11:48:07.558Z,25.17
2018-10-06T11:50:37.060Z,25.30
2018-10-06T11:53:06.908Z,20.97
2018-10-06T11:55:36.364Z,19.87
2018-10-06T11:58:05.177Z,18.63
2018-10-06T12:00:33.951Z,15.97
2018-10-06T12:03:02.830Z,17.17
2018-10-06T12:05:32.100Z,18.37
2018-10-06T12:08:00.873Z,16.37
2018-10-06T12:10:29.937Z,17.23
2018-10-06T12:12:58.750Z,17.37
2018-10-06T12:15:27.521Z,19.43
2018-10-06T12:18:03.251Z,18.77
2018-10-06T12:20:32.085Z,18.50
2018-10-06T12:23:00.919Z,19.77
2018-10-06T12:25:29.771Z,19.73
2018-10-06T12:27:58.828Z,18.70
2018-10-06T12:30:27.590Z,16.77
2018-10-06T12:33:03.173Z,14.60
2018-10-06T12:35:34.439Z,13.83
2018-10-06T12:38:06.800Z,12.90
2018-10-06T12:40:35.683Z,15.80
2018-10-06T12:43:04.439Z,11.97
2018-10-06T12:45:33.266Z,9.73
2018-10-06T12:48:02.117Z,10.20
2018-10-06T12:50:30.944Z,12.47
2018-10-06T12:52:59.628Z,12.50
2018-10-06T12:55:28.392Z,13.07
2018-10-06T12:57:57.332Z,12.80
2018-10-06T13:00:26.224Z,12.40
2018-10-06T13:02:56.140Z,10.60
2018-10-06T13:05:25.495Z,12.20
2018-10-06T13:07:54.401Z,11.57
2018-10-06T13:10:23.340Z,11.90
2018-10-06T13:12:52.145Z,13.30
2018-10-06T13:15:21.899Z,12.50
2018-10-06T13:17:50.855Z,10.70
2018-10-06T13:20:19.705Z,9.57
2018-10-06T13:22:48.580Z,12.60
2018-10-06T13:25:17.368Z,16.10
2018-10-06T13:27:46.350Z,16.17
2018-10-06T13:30:15.034Z,17.77
2018-10-06T13:32:43.839Z,18.93
2018-10-06T13:35:12.633Z,20.07
2018-10-06T13:37:41.443Z,21.93
2018-10-06T13:40:10.301Z,23.90
2018-10-06T13:42:39.018Z,25.97
2018-10-06T13:45:07.788Z,24.87
2018-10-06T13:47:36.692Z,24.80
2018-10-06T13:50:05.674Z,26.13
2018-10-06T13:52:34.560Z,28.53
2018-10-06T13:55:03.316Z,28.90
2018-10-06T13:57:31.993Z,27.13
2018-10-06T14:00:00.755Z,29.63
2018-10-06T14:02:29.497Z,28.77
2018-10-06T14:04:58.163Z,29.63
2018-10-06T14:07:26.938Z,31.13
2018-10-06T14:09:56.024Z,29.27
2018-10-06T14:12:25.958Z,32.23
2018-10-06T14:14:54.698Z,30.60
2018-10-06T14:17:23.443Z,28.97
2018-10-06T14:19:52.239Z,27.83
2018-10-06T14:22:21.075Z,23.70
2018-10-06T14:24:49.756Z,24.43
2018-10-06T14:27:18.441Z,26.07
2018-10-06T14:29:47.239Z,24.07
2018-10-06T14:32:16.057Z,23.60
2018-10-06T14:34:44.829Z,20.10
2018-10-06T14:37:13.492Z,25.77
2018-10-06T14:39:42.356Z,27.20
2018-10-06T14:42:11.172Z,25.80
2018-10-06T14:44:39.887Z,22.80
2018-10-06T14:47:08.630Z,20.00
2018-10-06T14:49:37.528Z,23.07
2018-10-06T14:52:06.564Z,21.07
2018-10-06T14:54:35.316Z,21.97
2018-10-06T14:57:03.899Z,24.70
2018-10-06T14:59:32.796Z,22.40
2018-10-06T15:02:01.529Z,16.83
2018-10-06T15:04:30.400Z,18.90
2018-10-06T15:06:59.110Z,22.00
2018-10-06T15:09:27.843Z,25.77
2018-10-06T15:11:56.612Z,28.27
2018-10-06T15:14:25.428Z,33.07
2018-10-06T15:16:54.036Z,33.80
2018-10-06T15:19:22.770Z,31.90
2018-10-06T15:21:51.566Z,32.33
2018-10-06T15:24:20.259Z,33.63
2018-10-06T15:26:50.156Z,34.77
2018-10-06T15:29:18.906Z,34.43
2018-10-06T15:31:47.528Z,36.70
2018-10-06T15:34:17.134Z,35.07
2018-10-06T15:36:45.946Z,39.30
2018-10-06T15:39:14.629Z,37.40
2018-10-06T15:41:43.325Z,76.37
2018-10-06T15:44:12.097Z,39.63
2018-10-06T15:46:40.825Z,41.60
2018-10-06T15:49:09.591Z,41.13
2018-10-06T15:51:39.278Z,42.70
2018-10-06T15:54:07.975Z,42.60
2018-10-06T15:56:36.679Z,40.80
2018-10-06T15:59:05.488Z,43.37
2018-10-06T16:01:34.206Z,43.03
2018-10-06T16:04:02.964Z,45.07
2018-10-06T16:06:31.737Z,45.87
2018-10-06T16:09:00.919Z,47.57
2018-10-06T16:11:29.605Z,47.13
2018-10-06T16:13:58.352Z,46.80
2018-10-06T16:16:27.813Z,48.33
2018-10-06T16:18:56.519Z,50.83
2018-10-06T16:21:25.385Z,111.33
2018-10-06T16:23:54.097Z,106.73
2018-10-06T16:26:22.796Z,52.43
2018-10-06T16:28:51.510Z,52.50
2018-10-06T16:31:20.261Z,54.50
2018-10-06T16:33:49.866Z,58.17
2018-10-06T16:36:18.682Z,53.63
2018-10-06T16:38:47.441Z,55.00
2018-10-06T16:41:16.216Z,53.47
2018-10-06T16:43:44.879Z,54.93
2018-10-06T16:46:13.536Z,49.63
2018-10-06T16:48:42.294Z,53.07
2018-10-06T16:51:11.005Z,49.13
2018-10-06T16:53:39.898Z,50.77
2018-10-06T16:56:08.642Z,47.80
2018-10-06T16:58:37.457Z,47.23
2018-10-06T17:01:06.419Z,48.07
2018-10-06T17:03:35.066Z,49.43
2018-10-06T17:06:03.795Z,47.37
2018-10-06T17:08:32.506Z,47.13
2018-10-06T17:11:01.248Z,48.53
2018-10-06T17:13:29.905Z,46.90
2018-10-06T17:15:59.390Z,50.00
2018-10-06T17:18:28.352Z,47.57
2018-10-06T17:20:57.035Z,46.90
2018-10-06T17:23:25.720Z,45.67
2018-10-06T17:25:54.616Z,46.20
2018-10-06T17:28:23.330Z,48.07
2018-10-06T17:30:52.102Z,49.80
2018-10-06T17:33:20.847Z,45.80
2018-10-06T17:35:51.052Z,46.00
2018-10-06T17:38:19.781Z,49.40
2018-10-06T17:40:49.012Z,49.43
2018-10-06T17:43:17.937Z,47.43
2018-10-06T17:45:47.006Z,47.50
2018-10-06T17:48:15.712Z,54.70
2018-10-06T17:50:44.474Z,40.70
2018-10-06T17:53:13.112Z,39.17
2018-10-06T17:55:41.792Z,40.63
2018-10-06T17:58:10.458Z,26.27
2018-10-06T18:00:39.155Z,22.67
2018-10-06T18:03:07.808Z,18.57
2018-10-06T18:05:36.537Z,15.43
2018-10-06T18:08:05.407Z,15.50
2018-10-06T18:10:34.300Z,15.77
2018-10-06T18:13:04.150Z,15.77
2018-10-06T18:15:32.941Z,17.70
2018-10-06T18:18:01.674Z,15.73
2018-10-06T18:20:31.091Z,14.90
2018-10-06T18:23:00.046Z,18.43
2018-10-06T18:25:30.072Z,17.97
2018-10-06T18:27:59.560Z,17.17
2018-10-06T18:30:28.600Z,17.13
2018-10-06T18:32:58.772Z,18.50
2018-10-06T18:35:27.636Z,18.53
2018-10-06T18:37:57.288Z,17.67
2018-10-06T18:40:26.971Z,17.30
2018-10-06T18:42:57.053Z,16.47
2018-10-06T18:45:26.049Z,15.73
2018-10-06T18:47:55.023Z,16.57
2018-10-06T18:50:24.142Z,15.53
2018-10-06T18:52:54.200Z,14.80
2018-10-06T18:55:23.274Z,14.00
2018-10-06T18:57:52.190Z,14.10
2018-10-06T19:00:21.244Z,13.00
2018-10-06T19:02:50.307Z,11.43
2018-10-06T19:05:19.354Z,12.80
2018-10-06T19:07:48.249Z,11.63
2018-10-06T19:10:17.194Z,11.63
2018-10-06T19:12:47.367Z,9.60
2018-10-06T19:15:16.401Z,10.87
2018-10-06T19:17:45.493Z,10.77
2018-10-06T19:20:15.080Z,10.67
2018-10-06T19:22:43.953Z,9.90
2018-10-06T19:25:12.741Z,11.17
2018-10-06T19:27:41.967Z,9.93
2018-10-06T19:30:11.148Z,8.47
2018-10-06T19:32:40.210Z,8.10
2018-10-06T19:35:10.462Z,6.97
2018-10-06T19:37:39.922Z,7.47
2018-10-06T19:40:15.037Z,7.70
2018-10-06T19:42:44.312Z,7.27
2018-10-06T19:45:13.619Z,6.57
2018-10-06T19:47:42.695Z,5.87
2018-10-06T19:50:12.402Z,7.97
2018-10-06T19:52:41.410Z,5.87
2018-10-06T19:55:10.288Z,5.73
2018-10-06T19:57:40.352Z,4.83
2018-10-06T20:00:09.804Z,4.90
2018-10-06T20:02:38.916Z,4.17
2018-10-06T20:05:09.684Z,5.27
2018-10-06T20:07:39.722Z,4.57
2018-10-06T20:10:08.715Z,3.77
2018-10-06T20:12:37.795Z,3.53
2018-10-06T20:15:07.691Z,3.67
2018-10-06T20:17:36.601Z,3.53
2018-10-06T20:20:06.635Z,3.27
2018-10-06T20:22:35.640Z,2.50
2018-10-06T20:25:04.704Z,2.83
2018-10-06T20:27:33.636Z,2.10
2018-10-06T20:30:02.804Z,2.23
2018-10-06T20:32:33.277Z,2.00
2018-10-06T20:35:03.095Z,1.83
2018-10-06T20:37:32.239Z,1.77
2018-10-06T20:40:01.126Z,2.10
2018-10-06T20:42:30.092Z,1.83
2018-10-06T20:45:00.354Z,2.27
2018-10-06T20:47:29.608Z,1.50
2018-10-06T20:49:58.749Z,1.53
2018-10-06T20:52:28.029Z,1.60
2018-10-06T20:54:57.042Z,1.73
2018-10-06T20:57:25.979Z,1.47
2018-10-06T20:59:55.480Z,2.20
2018-10-06T21:02:24.484Z,1.70
2018-10-06T21:04:53.405Z,2.33
2018-10-06T21:07:22.219Z,1.90
2018-10-06T21:09:51.136Z,1.60
2018-10-06T21:12:20.094Z,1.60
2018-10-06T21:14:49.077Z,2.37
2018-10-06T21:17:19.956Z,1.40
2018-10-06T21:19:48.769Z,1.70
2018-10-06T21:22:17.642Z,1.63
2018-10-06T21:24:46.497Z,1.20
2018-10-06T21:27:15.339Z,1.20
2018-10-06T21:29:44.129Z,1.63
2018-10-06T21:32:12.817Z,1.63
2018-10-06T21:34:41.576Z,1.77
2018-10-06T21:37:10.407Z,1.47
2018-10-06T21:39:39.110Z,1.37
2018-10-06T21:42:07.985Z,1.80
2018-10-06T21:44:36.742Z,1.97
2018-10-06T21:47:05.852Z,2.07
2018-10-06T21:49:34.599Z,2.17
2018-10-06T21:52:03.393Z,1.80
2018-10-06T21:54:32.116Z,2.00
2018-10-06T21:57:00.892Z,2.23
2018-10-06T21:59:29.585Z,1.57
2018-10-06T22:01:58.265Z,1.60
2018-10-06T22:04:26.936Z,1.77
2018-10-06T22:06:55.631Z,2.20
2018-10-06T22:09:25.354Z,1.60
2018-10-06T22:11:54.328Z,1.87
2018-10-06T22:14:23.061Z,1.43
2018-10-06T22:16:51.818Z,1.50
2018-10-06T22:19:20.604Z,1.73
2018-10-06T22:21:49.410Z,1.37
2018-10-06T22:24:18.165Z,1.93
2018-10-06T22:26:46.840Z,1.57
2018-10-06T22:29:16.403Z,2.33
2018-10-06T22:31:45.251Z,1.60
2018-10-06T22:34:14.042Z,1.60
2018-10-06T22:36:42.808Z,1.43
2018-10-06T22:39:11.476Z,2.07
2018-10-06T22:41:40.406Z,1.57
2018-10-06T22:44:09.622Z,1.70
2018-10-06T22:46:38.495Z,1.90
2018-10-06T22:49:08.001Z,2.20
2018-10-06T22:51:36.825Z,1.60
2018-10-06T22:54:14.604Z,1.90
2018-10-06T22:56:43.431Z,1.27
2018-10-06T22:59:12.032Z,1.63
2018-10-06T23:01:40.821Z,1.13
2018-10-06T23:04:09.580Z,1.50
2018-10-06T23:06:38.847Z,1.43
2018-10-06T23:09:09.981Z,1.33
2018-10-06T23:11:39.904Z,1.63
2018-10-06T23:14:08.821Z,1.70
2018-10-06T23:16:37.533Z,1.37
2018-10-06T23:19:06.342Z,1.33
2018-10-06T23:21:35.164Z,1.90
2018-10-06T23:24:03.946Z,2.03
2018-10-06T23:26:33.440Z,1.90
2018-10-06T23:29:02.190Z,1.60
2018-10-06T23:31:30.811Z,1.57
2018-10-06T23:33:59.504Z,2.07
2018-10-06T23:36:28.904Z,1.57
2018-10-06T23:38:58.265Z,1.50
2018-10-06T23:41:27.065Z,2.17
2018-10-06T23:43:56.435Z,1.43
2018-10-06T23:46:25.109Z,2.17
2018-10-06T23:48:53.792Z,1.70
2018-10-06T23:51:22.425Z,2.90
2018-10-06T23:53:51.136Z,1.53
2018-10-06T23:56:19.805Z,1.70
2018-10-06T23:58:48.508Z,1.70
